Time;durP1;ratioP1;P1;durP2;ratioP2;P2;SDS_P1;SDS_P2;PMS_P1;PMS_P2;Temp;Humidity;BMP_temperature;BMP_pressure;BME280_temperature;BME280_humidity;BME280_pressure;Samples;Min_cycle;Max_cycle;Signal;HPM_P1;HPM_P2
2023/09/03 00:01:32;;;;;;;10.15;6.93;;;18.80;99.90;;;;;;5029707;28;20200;-70
2023/09/03 00:03:58;;;;;;;13.15;7.32;;;18.80;99.90;;;;;;5030433;28;20175;-71
2023/09/03 00:06:23;;;;;;;8.40;5.70;;;18.80;99.90;;;;;;5028983;28;20204;-69
2023/09/03 00:08:49;;;;;;;8.40;5.45;;;18.80;99.90;;;;;;5009875;28;20209;-71
2023/09/03 00:11:18;;;;;;;7.32;5.32;;;18.80;99.90;;;;;;5028550;28;20723;-70
2023/09/03 00:13:43;;;;;;;9.70;5.43;;;18.80;99.90;;;;;;5023680;28;20714;-71
2023/09/03 00:16:10;;;;;;;5.88;4.97;;;18.80;99.90;;;;;;5026845;28;20208;-71
2023/09/03 00:18:37;;;;;;;12.75;6.28;;;18.80;99.90;;;;;;5027275;28;20176;-71
2023/09/03 00:21:04;;;;;;;8.02;4.93;;;18.80;99.90;;;;;;5007338;28;20205;-70
2023/09/03 00:23:31;;;;;;;7.97;5.22;;;18.90;99.90;;;;;;5024528;28;20208;-71
2023/09/03 00:25:58;;;;;;;6.63;4.70;;;18.80;99.90;;;;;;5009534;28;20208;-71
2023/09/03 00:28:24;;;;;;;7.30;4.15;;;18.80;99.90;;;;;;5025224;28;20209;-69
2023/09/03 00:31:03;;;;;;;5.68;4.65;;;18.80;99.90;;;;;;5010519;28;20674;-70
2023/09/03 00:33:29;;;;;;;7.45;4.65;;;18.80;99.90;;;;;;5022364;28;20209;-71
2023/09/03 00:35:55;;;;;;;7.43;4.80;;;18.80;99.90;;;;;;5004656;28;20216;-70
2023/09/03 00:38:21;;;;;;;7.32;5.32;;;18.80;99.90;;;;;;5017293;28;20204;-71
2023/09/03 00:40:46;;;;;;;8.13;5.43;;;18.80;99.90;;;;;;5033206;28;20270;-71
2023/09/03 00:43:12;;;;;;;11.10;5.45;;;18.70;99.90;;;;;;5036803;28;20206;-71
2023/09/03 00:45:42;;;;;;;12.13;5.57;;;18.70;99.90;;;;;;5033577;28;20192;-71
2023/09/03 00:48:09;;;;;;;6.68;5.18;;;18.70;99.90;;;;;;5032199;28;20717;-71
2023/09/03 00:50:37;;;;;;;8.50;4.93;;;18.70;99.90;;;;;;5031026;28;20217;-71
2023/09/03 00:53:05;;;;;;;7.32;5.13;;;18.70;99.90;;;;;;5027069;28;20215;-71
2023/09/03 00:55:32;;;;;;;9.82;5.70;;;18.80;99.90;;;;;;5027033;28;20219;-69
2023/09/03 00:57:58;;;;;;;9.68;5.70;;;18.80;99.90;;;;;;5017284;28;20230;-71
2023/09/03 01:00:25;;;;;;;9.35;5.70;;;18.70;99.90;;;;;;5025246;28;20265;-71
2023/09/03 01:02:53;;;;;;;7.90;5.30;;;18.80;99.90;;;;;;5025271;28;20203;-70
2023/09/03 01:05:18;;;;;;;7.65;5.15;;;18.70;99.90;;;;;;5027977;28;20589;-71
2023/09/03 01:07:44;;;;;;;6.15;5.05;;;18.70;99.90;;;;;;5013876;28;20230;-71
2023/09/03 01:10:10;;;;;;;7.70;5.45;;;18.80;99.90;;;;;;5023191;28;20184;-71
2023/09/03 01:12:58;;;;;;;8.27;5.30;;;18.70;99.90;;;;;;5011204;28;20177;-71
2023/09/03 01:15:37;;;;;;;9.60;5.10;;;18.70;99.90;;;;;;5000947;28;20225;-71
2023/09/03 01:18:13;;;;;;;5.72;4.63;;;18.70;99.90;;;;;;5024527;28;20740;-72
2023/09/03 01:20:44;;;;;;;6.72;5.18;;;18.70;99.90;;;;;;5010608;28;20224;-71
2023/09/03 01:23:28;;;;;;;10.25;5.70;;;18.70;99.90;;;;;;5050781;23;20259;-80
2023/09/03 01:26:08;;;;;;;7.97;5.07;;;18.70;99.90;;;;;;5015509;28;20204;-80
2023/09/03 01:28:39;;;;;;;6.70;5.30;;;18.70;99.90;;;;;;5012838;28;20210;-81
2023/09/03 01:31:08;;;;;;;8.25;5.38;;;18.70;99.90;;;;;;5020705;28;20270;-79
2023/09/03 01:33:36;;;;;;;5.82;4.70;;;18.70;99.90;;;;;;5035177;28;20654;-81
2023/09/03 01:36:06;;;;;;;8.82;5.07;;;18.70;99.90;;;;;;5017792;28;20236;-79
2023/09/03 01:38:36;;;;;;;6.05;4.40;;;18.70;99.90;;;;;;5025630;28;20275;-82
2023/09/03 01:41:02;;;;;;;9.00;5.78;;;18.70;99.90;;;;;;5030834;28;20246;-81
2023/09/03 01:43:28;;;;;;;16.20;5.93;;;18.70;99.90;;;;;;5013482;28;20227;-80
2023/09/03 01:46:12;;;;;;;7.82;5.55;;;18.70;99.90;;;;;;5017427;28;20263;-80
2023/09/03 01:48:59;;;;;;;8.73;5.45;;;18.70;99.90;;;;;;5032007;28;20223;-81
2023/09/03 01:51:37;;;;;;;7.72;5.10;;;18.70;99.90;;;;;;5026694;28;20583;-81
2023/09/03 01:54:14;;;;;;;7.18;5.15;;;18.70;99.90;;;;;;5029905;28;20774;-82
2023/09/03 01:56:45;;;;;;;7.28;4.88;;;18.60;99.90;;;;;;5023205;28;20691;-81
2023/09/03 01:59:19;;;;;;;6.65;4.70;;;18.60;99.90;;;;;;5043876;28;20338;-81
2023/09/03 02:01:47;;;;;;;6.93;5.43;;;18.50;99.90;;;;;;5029636;28;20208;-81
2023/09/03 02:04:13;;;;;;;7.35;5.32;;;18.40;99.90;;;;;;5040334;28;20584;-83
2023/09/03 02:06:39;;;;;;;8.57;5.38;;;18.40;99.90;;;;;;5018966;28;20178;-82
2023/09/03 02:09:05;;;;;;;9.23;5.68;;;18.30;99.90;;;;;;5034868;28;20220;-81
2023/09/03 02:11:31;;;;;;;5.35;4.82;;;18.30;99.90;;;;;;5017961;28;20204;-80
2023/09/03 02:13:56;;;;;;;6.10;5.03;;;18.20;99.90;;;;;;5017725;28;20580;-81
2023/09/03 02:16:22;;;;;;;11.27;6.82;;;18.10;99.90;;;;;;5009933;28;20205;-81
2023/09/03 02:18:47;;;;;;;5.93;5.22;;;18.10;99.90;;;;;;5039777;28;20192;-81
2023/09/03 02:21:13;;;;;;;9.82;6.63;;;18.10;99.90;;;;;;5019634;28;20208;-82
2023/09/03 02:23:38;;;;;;;10.13;6.40;;;18.10;99.90;;;;;;5032829;28;20228;-82
2023/09/03 02:26:04;;;;;;;6.05;5.45;;;18.10;99.90;;;;;;5019301;28;20208;-82
2023/09/03 02:28:30;;;;;;;7.07;5.65;;;18.10;99.90;;;;;;5032207;28;20559;-81
2023/09/03 02:30:55;;;;;;;7.15;5.68;;;18.00;99.90;;;;;;5023791;28;20203;-82
2023/09/03 02:33:22;;;;;;;7.03;5.45;;;18.10;99.90;;;;;;5017809;28;20236;-82
2023/09/03 02:35:48;;;;;;;7.78;5.15;;;18.00;99.90;;;;;;5030124;28;20215;-80
2023/09/03 02:38:14;;;;;;;7.68;5.03;;;17.90;99.90;;;;;;5035578;28;20291;-81
2023/09/03 02:40:39;;;;;;;7.90;5.90;;;17.90;99.90;;;;;;5034730;28;20240;-82
2023/09/03 02:43:05;;;;;;;7.05;5.65;;;17.90;99.90;;;;;;5024094;28;20227;-81
2023/09/03 02:45:31;;;;;;;6.82;5.20;;;17.90;99.90;;;;;;5035683;28;20176;-82
2023/09/03 02:47:56;;;;;;;21.40;11.77;;;17.80;99.90;;;;;;5045532;28;20686;-82
2023/09/03 02:50:22;;;;;;;8.88;6.18;;;17.80;99.90;;;;;;5017704;28;20216;-81
2023/09/03 02:52:48;;;;;;;11.10;8.18;;;17.80;99.90;;;;;;5034053;28;20303;-81
2023/09/03 02:55:14;;;;;;;10.52;6.85;;;17.80;99.90;;;;;;5022576;28;20204;-82
2023/09/03 02:57:40;;;;;;;11.23;6.65;;;17.70;99.90;;;;;;5018717;28;20643;-82
2023/09/03 03:00:06;;;;;;;9.93;5.70;;;17.70;99.90;;;;;;5035258;28;20641;-81
2023/09/03 03:02:33;;;;;;;10.45;6.63;;;17.70;99.90;;;;;;5011938;28;20215;-83
2023/09/03 03:04:58;;;;;;;7.57;5.80;;;17.80;99.90;;;;;;5019662;28;20204;-82
2023/09/03 03:07:25;;;;;;;7.70;5.82;;;17.70;99.90;;;;;;5032255;28;20204;-83
2023/09/03 03:09:51;;;;;;;7.32;5.72;;;17.70;99.90;;;;;;5032793;28;20176;-80
2023/09/03 03:12:18;;;;;;;11.10;6.30;;;17.60;99.90;;;;;;5031928;28;20701;-81
2023/09/03 03:14:44;;;;;;;8.13;5.72;;;17.70;99.90;;;;;;5018031;28;20213;-81
2023/09/03 03:17:10;;;;;;;10.00;5.75;;;17.60;99.90;;;;;;5028639;28;20219;-82
2023/09/03 03:19:35;;;;;;;8.25;5.68;;;17.60;99.90;;;;;;5018606;28;20228;-81
2023/09/03 03:22:01;;;;;;;6.78;5.57;;;17.70;99.90;;;;;;5039517;28;20595;-82
2023/09/03 03:24:26;;;;;;;11.23;5.82;;;17.60;99.90;;;;;;5035849;28;20205;-82
2023/09/03 03:26:52;;;;;;;10.00;5.80;;;17.60;99.90;;;;;;5021231;28;20212;-81
2023/09/03 03:29:18;;;;;;;10.48;5.50;;;17.50;99.90;;;;;;5032868;28;20220;-82
2023/09/03 03:31:43;;;;;;;9.57;5.38;;;17.60;99.90;;;;;;5020520;28;20218;-82
2023/09/03 03:34:09;;;;;;;6.90;6.10;;;17.60;99.90;;;;;;5028029;28;20207;-81
2023/09/03 03:36:35;;;;;;;8.70;5.60;;;17.60;99.90;;;;;;5016809;28;20177;-80
2023/09/03 03:39:00;;;;;;;10.90;5.65;;;17.60;99.90;;;;;;5018753;28;20246;-81
2023/09/03 03:41:26;;;;;;;8.05;5.45;;;17.70;99.90;;;;;;5011695;28;20223;-81
2023/09/03 03:43:52;;;;;;;8.13;6.00;;;17.50;99.90;;;;;;5030250;28;20297;-81
2023/09/03 03:46:19;;;;;;;10.05;5.72;;;17.50;99.90;;;;;;5027772;28;20187;-81
2023/09/03 03:48:46;;;;;;;6.93;5.68;;;17.60;99.90;;;;;;5028482;28;20181;-80
2023/09/03 03:51:13;;;;;;;7.00;5.03;;;17.60;99.90;;;;;;5014163;28;20277;-80
2023/09/03 03:53:39;;;;;;;8.38;5.07;;;17.50;99.90;;;;;;5026904;28;20205;-80
2023/09/03 03:56:07;;;;;;;8.05;5.43;;;17.50;99.90;;;;;;5016826;28;20490;-81
2023/09/03 03:58:35;;;;;;;6.47;5.32;;;17.50;99.90;;;;;;5028617;28;20214;-80
2023/09/03 04:01:11;;;;;;;7.53;5.68;;;17.40;99.90;;;;;;5032123;28;20235;-78
2023/09/03 04:03:37;;;;;;;8.85;4.78;;;17.40;99.90;;;;;;5034502;28;20213;-81
2023/09/03 04:06:02;;;;;;;5.40;4.68;;;17.40;99.90;;;;;;5031967;28;20284;-80
2023/09/03 04:08:31;;;;;;;5.35;4.43;;;17.40;99.90;;;;;;5012749;28;20215;-80
2023/09/03 04:10:57;;;;;;;6.60;4.32;;;17.40;99.90;;;;;;5015238;28;20583;-81
2023/09/03 04:13:24;;;;;;;7.05;5.55;;;17.40;99.90;;;;;;5033055;28;20647;-80
2023/09/03 04:15:50;;;;;;;5.25;4.13;;;17.40;99.90;;;;;;5032362;28;20262;-80
2023/09/03 04:18:16;;;;;;;7.50;4.45;;;17.40;99.90;;;;;;5026565;28;20229;-81
2023/09/03 04:20:41;;;;;;;5.68;4.63;;;17.40;99.90;;;;;;5029748;28;20228;-80
2023/09/03 04:23:07;;;;;;;7.13;5.03;;;17.40;99.90;;;;;;5018662;28;20232;-80
2023/09/03 04:25:33;;;;;;;8.70;4.93;;;17.30;99.90;;;;;;5016686;28;20692;-79
2023/09/03 04:27:58;;;;;;;6.22;4.50;;;17.30;99.90;;;;;;5030540;28;20200;-81
2023/09/03 04:30:24;;;;;;;6.10;4.28;;;17.30;99.90;;;;;;5026366;28;20575;-80
2023/09/03 04:32:49;;;;;;;5.82;4.50;;;17.20;99.90;;;;;;5017400;28;20698;-79
2023/09/03 04:35:15;;;;;;;5.22;3.97;;;17.30;99.90;;;;;;5008066;28;20208;-80
2023/09/03 04:37:41;;;;;;;4.90;4.03;;;17.20;99.90;;;;;;5032704;28;20208;-81
2023/09/03 04:40:08;;;;;;;6.47;4.40;;;17.30;99.90;;;;;;5027436;28;20235;-80
2023/09/03 04:42:34;;;;;;;9.05;4.88;;;17.20;99.90;;;;;;5044387;28;20179;-81
2023/09/03 04:45:00;;;;;;;6.18;5.05;;;17.30;99.90;;;;;;5044086;28;20200;-82
2023/09/03 04:47:25;;;;;;;8.32;4.72;;;17.30;99.90;;;;;;5028295;28;20200;-80
2023/09/03 04:49:51;;;;;;;6.10;4.10;;;17.30;99.90;;;;;;5025930;28;20223;-80
2023/09/03 04:52:16;;;;;;;6.80;4.38;;;17.30;99.90;;;;;;5015400;28;20188;-81
2023/09/03 04:54:43;;;;;;;5.55;4.20;;;17.30;99.90;;;;;;5018131;28;20288;-82
2023/09/03 04:57:09;;;;;;;5.50;4.35;;;17.30;99.90;;;;;;5018587;28;20208;-82
2023/09/03 04:59:34;;;;;;;6.35;4.05;;;17.30;99.90;;;;;;5020564;28;20220;-82
2023/09/03 05:02:00;;;;;;;5.95;3.97;;;17.40;99.90;;;;;;5021986;28;20196;-82
2023/09/03 05:04:26;;;;;;;5.90;4.00;;;17.30;99.90;;;;;;5030571;28;20327;-83
2023/09/03 05:06:51;;;;;;;5.32;4.28;;;17.40;99.90;;;;;;5033098;28;20816;-80
2023/09/03 05:09:17;;;;;;;6.88;3.95;;;17.40;99.90;;;;;;5028662;28;20212;-82
2023/09/03 05:11:42;;;;;;;7.05;4.13;;;17.40;99.90;;;;;;5036412;28;20209;-82
2023/09/03 05:14:08;;;;;;;5.68;4.10;;;17.40;99.90;;;;;;5027813;28;20211;-81
2023/09/03 05:16:34;;;;;;;4.50;3.97;;;17.50;99.90;;;;;;5024581;28;20224;-81
2023/09/03 05:19:04;;;;;;;5.38;3.30;;;17.40;99.90;;;;;;5024939;28;20171;-80
2023/09/03 05:21:32;;;;;;;8.57;4.10;;;17.50;99.90;;;;;;5018806;28;20200;-80
2023/09/03 05:23:57;;;;;;;4.25;3.53;;;17.80;99.90;;;;;;5015394;28;20759;-81
2023/09/03 05:26:23;;;;;;;5.10;4.32;;;18.00;99.90;;;;;;5022374;28;20290;-82
2023/09/03 05:28:49;;;;;;;5.65;5.00;;;18.10;99.90;;;;;;5044035;28;20235;-80
2023/09/03 05:31:15;;;;;;;8.48;5.70;;;19.20;99.90;;;;;;5025077;28;20184;-81
2023/09/03 05:33:41;;;;;;;6.15;4.00;;;20.60;99.90;;;;;;5040504;28;20196;-81
2023/09/03 05:36:06;;;;;;;3.58;3.25;;;20.10;99.90;;;;;;5023140;28;20217;-82
2023/09/03 05:38:32;;;;;;;4.78;3.00;;;19.70;99.90;;;;;;5014495;28;20208;-82
2023/09/03 05:40:59;;;;;;;4.60;2.92;;;19.60;99.90;;;;;;5037321;28;20247;-82
2023/09/03 05:43:25;;;;;;;7.82;3.55;;;19.20;99.90;;;;;;5022165;28;20326;-81
2023/09/03 05:45:51;;;;;;;6.18;3.55;;;19.00;99.90;;;;;;5036145;28;20182;-80
2023/09/03 05:48:17;;;;;;;9.90;6.25;;;18.90;99.90;;;;;;5018785;28;20809;-81
2023/09/03 05:50:42;;;;;;;9.38;5.85;;;18.60;99.90;;;;;;5030970;28;20208;-81
2023/09/03 05:53:08;;;;;;;6.53;4.10;;;18.40;99.90;;;;;;5020085;28;20731;-81
2023/09/03 05:55:37;;;;;;;6.50;3.63;;;18.50;99.90;;;;;;5037582;28;20244;-77
2023/09/03 05:58:03;;;;;;;7.72;4.35;;;18.40;99.90;;;;;;5016382;28;20176;-80
2023/09/03 06:00:29;;;;;;;12.50;6.75;;;18.40;99.90;;;;;;5026774;28;20725;-81
2023/09/03 06:02:55;;;;;;;4.75;3.58;;;18.30;99.90;;;;;;5041213;28;20230;-79
2023/09/03 06:05:21;;;;;;;8.43;3.83;;;18.40;99.90;;;;;;5025280;28;20227;-82
2023/09/03 06:07:48;;;;;;;3.53;2.92;;;18.50;99.90;;;;;;5043194;28;20220;-80
2023/09/03 06:10:13;;;;;;;4.47;3.22;;;18.50;99.90;;;;;;5044115;28;20250;-81
2023/09/03 06:12:39;;;;;;;5.22;3.10;;;18.60;99.90;;;;;;5025171;28;20211;-82
2023/09/03 06:15:05;;;;;;;3.83;2.72;;;18.70;99.90;;;;;;5027317;28;20622;-82
2023/09/03 06:17:31;;;;;;;4.20;3.08;;;18.70;99.90;;;;;;5024109;28;20216;-83
2023/09/03 06:19:56;;;;;;;3.67;2.75;;;19.00;99.90;;;;;;5041165;28;20221;-81
2023/09/03 06:22:22;;;;;;;5.68;3.08;;;19.20;99.90;;;;;;5045297;28;20235;-82
2023/09/03 06:24:48;;;;;;;6.57;3.20;;;19.20;99.90;;;;;;5028024;28;20597;-79
2023/09/03 06:27:13;;;;;;;3.35;2.50;;;19.30;99.90;;;;;;5026048;28;20211;-81
2023/09/03 06:29:39;;;;;;;4.55;2.67;;;19.40;99.90;;;;;;5020488;28;20272;-81
2023/09/03 06:32:05;;;;;;;6.57;2.85;;;19.40;99.90;;;;;;5036888;28;20247;-82
2023/09/03 06:34:31;;;;;;;3.83;2.75;;;19.50;99.90;;;;;;5016245;28;20266;-81
2023/09/03 06:36:57;;;;;;;4.45;2.75;;;19.60;99.90;;;;;;5018130;28;20246;-82
2023/09/03 06:39:25;;;;;;;4.25;2.60;;;19.70;99.90;;;;;;5021750;28;20236;-79
2023/09/03 06:41:51;;;;;;;7.47;2.55;;;20.10;99.90;;;;;;5037913;28;20212;-79
2023/09/03 06:44:16;;;;;;;5.25;2.33;;;21.40;99.90;;;;;;5014437;28;20226;-80
2023/09/03 06:46:42;;;;;;;3.17;1.80;;;22.70;99.90;;;;;;5035287;28;20211;-79
2023/09/03 06:49:07;;;;;;;3.22;2.10;;;24.50;99.90;;;;;;5016656;28;20215;-78
2023/09/03 06:51:33;;;;;;;5.60;2.13;;;25.10;99.90;;;;;;5032854;28;20185;-80
2023/09/03 06:53:59;;;;;;;6.38;2.35;;;25.10;99.90;;;;;;5031896;28;20594;-80
2023/09/03 06:56:24;;;;;;;6.18;2.15;;;25.60;99.90;;;;;;5028001;28;20241;-80
2023/09/03 06:58:50;;;;;;;4.97;2.55;;;26.10;99.90;;;;;;5028916;28;20228;-78
2023/09/03 07:01:17;;;;;;;3.55;1.80;;;25.70;99.90;;;;;;5026852;28;20216;-80
2023/09/03 07:03:43;;;;;;;2.83;1.80;;;25.40;99.90;;;;;;5019078;28;20197;-81
2023/09/03 07:06:08;;;;;;;2.80;1.60;;;24.90;99.90;;;;;;5030753;28;20232;-79
2023/09/03 07:08:34;;;;;;;4.28;2.28;;;25.00;99.90;;;;;;5026902;28;20663;-80
2023/09/03 07:11:00;;;;;;;2.08;1.67;;;25.60;99.90;;;;;;5048543;28;20257;-78
2023/09/03 07:13:25;;;;;;;3.45;1.60;;;26.70;99.90;;;;;;5049918;28;20231;-80
2023/09/03 07:15:51;;;;;;;2.55;1.50;;;27.40;99.90;;;;;;5044892;28;20271;-79
2023/09/03 07:18:17;;;;;;;3.63;1.55;;;28.00;99.90;;;;;;5058740;28;20560;-80
2023/09/03 07:20:42;;;;;;;1.63;1.40;;;28.10;99.90;;;;;;5061572;28;20212;-79
2023/09/03 07:23:08;;;;;;;2.50;1.40;;;27.20;99.90;;;;;;5062968;28;20277;-79
2023/09/03 07:25:35;;;;;;;2.80;1.60;;;26.50;99.90;;;;;;5059167;28;20223;-79
2023/09/03 07:28:01;;;;;;;2.35;1.50;;;25.70;99.90;;;;;;5038348;28;20184;-80
2023/09/03 07:30:28;;;;;;;3.75;1.60;;;25.10;99.90;;;;;;5060173;28;20255;-82
2023/09/03 07:32:53;;;;;;;3.42;1.73;;;24.70;99.90;;;;;;5055367;28;20215;-80
2023/09/03 07:35:19;;;;;;;3.25;1.52;;;24.60;99.90;;;;;;5047307;28;20203;-80
2023/09/03 07:37:45;;;;;;;1.92;1.67;;;25.20;99.90;;;;;;5055006;28;20200;-81
2023/09/03 07:40:11;;;;;;;1.65;1.38;;;26.30;99.90;;;;;;5040037;28;20230;-80
2023/09/03 07:42:36;;;;;;;2.03;1.63;;;27.00;99.90;;;;;;5037549;28;20176;-79
2023/09/03 07:45:02;;;;;;;4.38;1.73;;;27.50;99.90;;;;;;5052770;28;20205;-81
2023/09/03 07:47:28;;;;;;;2.63;1.58;;;27.60;99.90;;;;;;5047928;28;20755;-82
2023/09/03 07:49:54;;;;;;;2.10;1.80;;;27.20;99.90;;;;;;5047980;28;20204;-81
2023/09/03 07:52:20;;;;;;;2.80;1.67;;;27.10;99.90;;;;;;5027334;28;20733;-80
2023/09/03 07:54:45;;;;;;;4.78;1.63;;;26.70;99.90;;;;;;5033915;28;20200;-81
2023/09/03 07:57:12;;;;;;;1.55;1.45;;;26.40;99.90;;;;;;5057385;28;20239;-80
2023/09/03 07:59:38;;;;;;;3.50;1.45;;;26.30;99.90;;;;;;5042738;28;20314;-78
2023/09/03 08:02:04;;;;;;;2.30;1.77;;;26.20;99.90;;;;;;5062010;28;20215;-81
2023/09/03 08:04:30;;;;;;;5.43;2.13;;;26.00;99.90;;;;;;5037423;28;20218;-80
2023/09/03 08:06:56;;;;;;;2.42;1.50;;;25.80;99.90;;;;;;5060285;28;20184;-81
2023/09/03 08:09:24;;;;;;;6.97;1.98;;;25.90;99.90;;;;;;5056591;28;20211;-80
2023/09/03 08:11:51;;;;;;;1.40;1.25;;;25.90;99.90;;;;;;5039896;28;20216;-79
2023/09/03 08:14:17;;;;;;;3.95;1.60;;;26.00;99.90;;;;;;5055334;28;20223;-80
2023/09/03 08:16:42;;;;;;;2.13;1.10;;;25.70;99.90;;;;;;5052632;28;20216;-81
2023/09/03 08:19:08;;;;;;;1.27;1.00;;;25.70;99.90;;;;;;5062807;28;20187;-80
2023/09/03 08:21:33;;;;;;;3.30;1.63;;;25.70;99.90;;;;;;5054214;28;20203;-79
2023/09/03 08:23:59;;;;;;;3.53;1.08;;;25.90;99.90;;;;;;5054079;28;20214;-81
2023/09/03 08:26:25;;;;;;;3.75;1.38;;;25.90;99.90;;;;;;5038949;28;20204;-80
2023/09/03 08:28:50;;;;;;;2.58;1.33;;;26.30;99.90;;;;;;5048377;28;20211;-79
2023/09/03 08:31:16;;;;;;;1.80;1.17;;;26.50;99.90;;;;;;5056894;28;20552;-77
2023/09/03 08:33:42;;;;;;;1.38;0.90;;;26.60;99.90;;;;;;5055005;28;20700;-79
2023/09/03 08:36:07;;;;;;;1.85;0.88;;;26.80;99.90;;;;;;5033084;28;20625;-79
2023/09/03 08:38:33;;;;;;;2.63;1.20;;;26.60;99.90;;;;;;5053885;28;20204;-81
2023/09/03 08:40:59;;;;;;;1.45;1.10;;;26.30;99.90;;;;;;5054844;28;20243;-80
2023/09/03 08:43:27;;;;;;;1.77;1.30;;;26.20;99.90;;;;;;5055455;28;20639;-80
2023/09/03 08:46:00;;;;;;;2.35;1.00;;;26.10;99.90;;;;;;5036211;28;20176;-81
2023/09/03 08:48:26;;;;;;;2.25;1.00;;;25.90;99.90;;;;;;5038655;28;20555;-82
2023/09/03 08:50:54;;;;;;;3.22;0.90;;;25.60;99.90;;;;;;5039458;28;20278;-80
2023/09/03 08:53:22;;;;;;;3.58;1.20;;;25.60;99.90;;;;;;5045624;28;20212;-79
2023/09/03 08:55:47;;;;;;;3.35;0.95;;;25.50;99.90;;;;;;5042981;28;20208;-78
2023/09/03 08:58:15;;;;;;;1.98;0.98;;;25.30;99.90;;;;;;5036323;28;20180;-78
2023/09/03 09:00:41;;;;;;;3.45;1.55;;;25.20;99.90;;;;;;5045393;28;20231;-77
2023/09/03 09:03:13;;;;;;;4.20;1.30;;;25.60;99.90;;;;;;5046479;28;20221;-79
2023/09/03 09:05:41;;;;;;;2.45;1.15;;;26.00;99.90;;;;;;5020007;28;20197;-77
2023/09/03 09:08:07;;;;;;;2.10;1.20;;;26.10;99.90;;;;;;5029527;28;20205;-79
2023/09/03 09:10:37;;;;;;;3.05;1.15;;;26.10;99.90;;;;;;5046655;28;20203;-79
2023/09/03 09:13:06;;;;;;;2.75;1.10;;;25.90;99.90;;;;;;5044192;28;20184;-79
2023/09/03 09:15:35;;;;;;;2.00;0.88;;;25.70;99.90;;;;;;5043967;28;20184;-78
2023/09/03 09:18:00;;;;;;;2.20;0.73;;;25.10;99.90;;;;;;5044575;28;20239;-78
2023/09/03 09:20:26;;;;;;;1.50;0.98;;;24.50;99.90;;;;;;5040745;28;20236;-79
2023/09/03 09:22:51;;;;;;;1.90;0.85;;;24.10;99.90;;;;;;5040931;28;20212;-78
2023/09/03 09:25:21;;;;;;;1.30;1.00;;;24.10;99.90;;;;;;5025566;28;20216;-79
2023/09/03 09:27:47;;;;;;;2.05;0.80;;;24.20;99.90;;;;;;5045890;28;20176;-78
2023/09/03 09:30:15;;;;;;;2.95;1.05;;;24.20;99.90;;;;;;5050795;28;20295;-80
2023/09/03 09:32:42;;;;;;;1.17;1.05;;;24.40;99.90;;;;;;5035034;28;20240;-79
2023/09/03 09:35:09;;;;;;;1.95;0.90;;;24.60;99.90;;;;;;5049570;28;20220;-79
2023/09/03 09:37:39;;;;;;;3.88;1.10;;;24.80;99.90;;;;;;5030929;28;20313;-77
2023/09/03 09:40:09;;;;;;;1.65;0.80;;;24.90;99.90;;;;;;5042258;28;20212;-79
2023/09/03 09:42:53;;;;;;;2.72;1.10;;;24.80;99.90;;;;;;5045252;28;20172;-79
2023/09/03 09:45:19;;;;;;;1.80;1.13;;;24.90;99.90;;;;;;5049959;28;20211;-80
2023/09/03 09:47:46;;;;;;;1.88;0.70;;;24.90;99.90;;;;;;5034806;28;20204;-80
2023/09/03 09:50:12;;;;;;;2.08;0.82;;;25.20;99.90;;;;;;5047684;28;20263;-78
2023/09/03 09:52:38;;;;;;;2.90;0.90;;;25.50;99.90;;;;;;5024801;28;20597;-78
2023/09/03 09:55:04;;;;;;;1.13;0.75;;;25.90;99.90;;;;;;5040257;28;20168;-80
2023/09/03 09:57:30;;;;;;;2.22;1.20;;;25.80;99.90;;;;;;5049917;28;20187;-78
2023/09/03 10:00:01;;;;;;;2.53;1.42;;;25.70;99.90;;;;;;5036101;28;20215;-77
2023/09/03 10:02:27;;;;;;;2.10;1.13;;;25.90;99.90;;;;;;5033103;28;20569;-80
2023/09/03 10:04:54;;;;;;;1.75;1.20;;;25.90;99.90;;;;;;5029966;28;20212;-80
2023/09/03 10:07:20;;;;;;;1.88;1.00;;;25.50;99.90;;;;;;5046288;28;20207;-79
2023/09/03 10:09:46;;;;;;;6.07;1.20;;;25.50;99.90;;;;;;5044665;28;20648;-79
2023/09/03 10:12:12;;;;;;;2.80;1.40;;;25.70;99.90;;;;;;5034266;28;20289;-78
2023/09/03 10:14:39;;;;;;;2.78;0.90;;;25.80;99.90;;;;;;5048706;28;20736;-79
2023/09/03 10:17:07;;;;;;;2.10;0.70;;;25.70;99.90;;;;;;5044266;28;20219;-79
2023/09/03 10:19:47;;;;;;;1.33;0.60;;;25.60;99.90;;;;;;5045749;28;20208;-79
2023/09/03 10:22:15;;;;;;;2.33;0.88;;;25.50;99.90;;;;;;5015679;28;20331;-78
2023/09/03 10:24:56;;;;;;;3.38;1.10;;;25.60;99.90;;;;;;5042384;28;20215;-78
2023/09/03 10:27:26;;;;;;;1.23;0.88;;;25.70;99.90;;;;;;5046531;28;20278;-79
2023/09/03 10:29:56;;;;;;;1.73;1.15;;;25.80;99.90;;;;;;5050677;28;20639;-79
2023/09/03 10:32:24;;;;;;;0.90;0.70;;;25.70;99.90;;;;;;5053341;28;20208;-78
2023/09/03 10:34:50;;;;;;;1.92;1.10;;;25.60;99.90;;;;;;5046278;28;20219;-77
2023/09/03 10:37:15;;;;;;;4.75;1.60;;;25.50;99.90;;;;;;5035587;28;20186;-78
2023/09/03 10:39:43;;;;;;;2.17;0.95;;;25.70;99.90;;;;;;5036871;28;20179;-82
2023/09/03 10:42:37;;;;;;;4.75;1.38;;;25.60;99.90;;;;;;5046726;28;20335;-75
2023/09/03 10:45:12;;;;;;;2.97;1.17;;;25.60;99.90;;;;;;5039583;28;20199;-75
2023/09/03 10:48:15;;;;;;;1.60;0.88;;;25.60;99.90;;;;;;5045759;28;20245;-75
2023/09/03 10:50:52;;;;;;;2.78;1.75;;;25.60;99.90;;;;;;5014725;28;20208;-76
2023/09/03 10:53:39;;;;;;;4.18;2.10;;;25.50;99.90;;;;;;5044741;28;20215;-76
2023/09/03 10:56:09;;;;;;;6.25;3.15;;;25.50;99.90;;;;;;5030402;28;20212;-76
2023/09/03 10:58:35;;;;;;;3.60;2.00;;;25.60;99.90;;;;;;5041115;28;20204;-77
2023/09/03 11:01:33;;;;;;;2.40;1.20;;;25.50;99.90;;;;;;5027920;28;20228;-77
2023/09/03 11:04:03;;;;;;;1.73;1.08;;;25.30;99.90;;;;;;5021504;28;20597;-77
2023/09/03 11:06:33;;;;;;;4.72;2.20;;;25.20;99.90;;;;;;5042842;28;20609;-76
2023/09/03 11:08:59;;;;;;;5.50;3.65;;;25.30;99.90;;;;;;5044115;28;20706;-76
2023/09/03 11:11:33;;;;;;;3.00;2.17;;;25.60;99.90;;;;;;5043296;28;20215;-77
2023/09/03 11:14:00;;;;;;;2.10;1.15;;;25.90;99.90;;;;;;5044408;28;20224;-76
2023/09/03 11:16:33;;;;;;;1.73;1.17;;;26.00;99.90;;;;;;5039420;28;20212;-77
2023/09/03 11:19:00;;;;;;;1.48;1.23;;;26.00;99.90;;;;;;5028491;28;20176;-75
2023/09/03 11:21:27;;;;;;;1.77;1.00;;;26.00;99.90;;;;;;5023827;28;20231;-76
2023/09/03 11:24:16;;;;;;;1.60;1.10;;;26.30;99.90;;;;;;5025480;28;20252;-75
2023/09/03 11:26:42;;;;;;;2.72;1.90;;;26.00;99.90;;;;;;5045946;28;20287;-76
2023/09/03 11:29:25;;;;;;;2.05;1.15;;;26.20;99.90;;;;;;5041629;28;20203;-76
2023/09/03 11:31:51;;;;;;;2.40;1.23;;;26.00;99.90;;;;;;5043519;28;20625;-75
2023/09/03 11:34:23;;;;;;;5.20;2.00;;;26.20;99.90;;;;;;5040247;28;20235;-75
2023/09/03 11:36:49;;;;;;;4.35;1.25;;;26.40;99.90;;;;;;5040414;28;20207;-74
2023/09/03 11:39:16;;;;;;;1.75;1.40;;;26.20;99.90;;;;;;5042489;28;20204;-75
2023/09/03 11:41:43;;;;;;;2.90;1.10;;;26.30;99.90;;;;;;5029260;28;20771;-72
2023/09/03 11:44:18;;;;;;;1.77;1.40;;;26.30;99.90;;;;;;5040859;28;20225;-72
2023/09/03 11:47:10;;;;;;;3.90;2.00;;;26.20;99.90;;;;;;5020875;28;20629;-72
2023/09/03 11:49:36;;;;;;;3.78;2.28;;;26.00;99.90;;;;;;5035345;28;20210;-73
2023/09/03 11:52:28;;;;;;;2.38;1.40;;;25.90;99.90;;;;;;5038724;28;20713;-74
2023/09/03 11:54:55;;;;;;;3.25;1.70;;;25.90;99.90;;;;;;5037062;28;20690;-72
2023/09/03 11:57:20;;;;;;;4.38;2.22;;;25.90;99.90;;;;;;5040831;28;20239;-73
2023/09/03 11:59:47;;;;;;;4.43;2.53;;;25.70;99.90;;;;;;5040295;28;20251;-72
2023/09/03 12:02:13;;;;;;;2.38;1.35;;;25.70;99.90;;;;;;5036501;28;20199;-74
2023/09/03 12:04:39;;;;;;;2.88;1.40;;;25.60;99.90;;;;;;5037498;28;20255;-72
2023/09/03 12:07:16;;;;;;;8.85;4.75;;;25.50;99.90;;;;;;5037608;28;20211;-73
2023/09/03 12:09:42;;;;;;;4.50;3.08;;;25.50;99.90;;;;;;5042207;28;20643;-73
2023/09/03 12:12:09;;;;;;;4.35;2.17;;;25.40;99.90;;;;;;5043722;28;20219;-72
2023/09/03 12:14:35;;;;;;;8.13;5.00;;;25.30;99.90;;;;;;5044804;28;20207;-72
2023/09/03 12:17:00;;;;;;;2.58;1.52;;;25.40;99.90;;;;;;5042949;28;20204;-73
2023/09/03 12:19:39;;;;;;;1.95;1.30;;;25.40;99.90;;;;;;5048762;28;20214;-73
2023/09/03 12:22:05;;;;;;;3.67;1.73;;;25.40;99.90;;;;;;5032728;28;20188;-72
2023/09/03 12:24:31;;;;;;;4.47;2.25;;;25.30;99.90;;;;;;5029884;28;20257;-71
2023/09/03 12:27:04;;;;;;;5.32;3.20;;;25.30;99.90;;;;;;5030982;28;20204;-72
2023/09/03 12:29:35;;;;;;;4.95;2.63;;;25.30;99.90;;;;;;5034248;28;20201;-71
2023/09/03 12:32:01;;;;;;;2.15;1.30;;;25.00;99.90;;;;;;5021129;28;20761;-72
2023/09/03 12:34:35;;;;;;;4.70;2.58;;;24.90;99.90;;;;;;5037549;28;20223;-71
2023/09/03 12:37:01;;;;;;;3.10;2.22;;;25.00;99.90;;;;;;5034274;28;20185;-72
2023/09/03 12:39:37;;;;;;;4.35;2.08;;;25.10;99.90;;;;;;5036996;28;20172;-71
2023/09/03 12:42:07;;;;;;;2.38;1.63;;;24.90;99.90;;;;;;5022716;28;20263;-73
2023/09/03 12:44:33;;;;;;;3.33;2.28;;;25.00;99.90;;;;;;5046039;28;20208;-74
2023/09/03 12:47:00;;;;;;;4.82;2.60;;;24.90;99.90;;;;;;5032749;28;20231;-72
2023/09/03 12:49:27;;;;;;;4.25;1.98;;;24.90;99.90;;;;;;5043676;28;20211;-73